sensor_id;sensor_type;location;lat;lon;timestamp;P1;durP1;ratioP1;P2;durP2;ratioP2
4577;SDS011;2301;47.354;8.528;2023-02-07T00:01:31;6.63;;;5.07;;
4577;SDS011;2301;47.354;8.528;2023-02-07T00:03:58;7.78;;;5.10;;
4577;SDS011;2301;47.354;8.528;2023-02-07T00:06:27;6.97;;;5.20;;
4577;SDS011;2301;47.354;8.528;2023-02-07T00:08:57;9.10;;;5.82;;
4577;SDS011;2301;47.354;8.528;2023-02-07T00:11:25;7.00;;;5.30;;
4577;SDS011;2301;47.354;8.528;2023-02-07T00:13:53;6.90;;;5.30;;
4577;SDS011;2301;47.354;8.528;2023-02-07T00:16:22;9.18;;;5.57;;
4577;SDS011;2301;47.354;8.528;2023-02-07T00:18:50;8.15;;;5.30;;
4577;SDS011;2301;47.354;8.528;2023-02-07T00:21:19;7.68;;;5.60;;
4577;SDS011;2301;47.354;8.528;2023-02-07T00:23:48;7.85;;;5.57;;
4577;SDS011;2301;47.354;8.528;2023-02-07T00:26:15;11.05;;;5.95;;
4577;SDS011;2301;47.354;8.528;2023-02-07T00:28:45;11.43;;;5.53;;
4577;SDS011;2301;47.354;8.528;2023-02-07T00:31:12;5.95;;;4.85;;
4577;SDS011;2301;47.354;8.528;2023-02-07T00:33:41;7.90;;;5.82;;
4577;SDS011;2301;47.354;8.528;2023-02-07T00:36:11;7.53;;;5.20;;
4577;SDS011;2301;47.354;8.528;2023-02-07T00:38:39;7.80;;;5.35;;
4577;SDS011;2301;47.354;8.528;2023-02-07T00:41:08;7.38;;;4.93;;
4577;SDS011;2301;47.354;8.528;2023-02-07T00:43:39;8.68;;;5.57;;
4577;SDS011;2301;47.354;8.528;2023-02-07T00:46:06;15.45;;;5.22;;
4577;SDS011;2301;47.354;8.528;2023-02-07T00:48:33;6.60;;;4.57;;
4577;SDS011;2301;47.354;8.528;2023-02-07T00:51:01;6.97;;;4.60;;
4577;SDS011;2301;47.354;8.528;2023-02-07T00:53:28;5.88;;;4.78;;
4577;SDS011;2301;47.354;8.528;2023-02-07T00:55:55;7.75;;;5.10;;
4577;SDS011;2301;47.354;8.528;2023-02-07T00:58:24;7.93;;;5.18;;
4577;SDS011;2301;47.354;8.528;2023-02-07T01:00:51;7.35;;;4.90;;
4577;SDS011;2301;47.354;8.528;2023-02-07T01:03:18;9.00;;;5.88;;
4577;SDS011;2301;47.354;8.528;2023-02-07T01:05:45;8.95;;;5.68;;
4577;SDS011;2301;47.354;8.528;2023-02-07T01:08:12;5.90;;;4.88;;
4577;SDS011;2301;47.354;8.528;2023-02-07T01:10:40;10.82;;;6.07;;
4577;SDS011;2301;47.354;8.528;2023-02-07T01:13:08;7.90;;;5.68;;
4577;SDS011;2301;47.354;8.528;2023-02-07T01:15:37;6.43;;;4.88;;
4577;SDS011;2301;47.354;8.528;2023-02-07T01:18:05;8.32;;;4.85;;
4577;SDS011;2301;47.354;8.528;2023-02-07T01:20:33;7.80;;;5.05;;
4577;SDS011;2301;47.354;8.528;2023-02-07T01:23:01;6.55;;;5.15;;
4577;SDS011;2301;47.354;8.528;2023-02-07T01:25:29;8.38;;;6.03;;
4577;SDS011;2301;47.354;8.528;2023-02-07T01:27:56;6.75;;;5.20;;
4577;SDS011;2301;47.354;8.528;2023-02-07T01:30:23;6.65;;;5.38;;
4577;SDS011;2301;47.354;8.528;2023-02-07T01:32:52;6.90;;;5.05;;
4577;SDS011;2301;47.354;8.528;2023-02-07T01:35:19;7.97;;;6.10;;
4577;SDS011;2301;47.354;8.528;2023-02-07T01:37:46;6.85;;;4.82;;
4577;SDS011;2301;47.354;8.528;2023-02-07T01:40:13;6.63;;;5.28;;
4577;SDS011;2301;47.354;8.528;2023-02-07T01:42:40;8.93;;;5.43;;
4577;SDS011;2301;47.354;8.528;2023-02-07T01:45:22;10.70;;;5.45;;
4577;SDS011;2301;47.354;8.528;2023-02-07T01:47:55;11.50;;;6.07;;
4577;SDS011;2301;47.354;8.528;2023-02-07T01:50:27;7.32;;;5.03;;
4577;SDS011;2301;47.354;8.528;2023-02-07T01:52:54;7.97;;;5.80;;
4577;SDS011;2301;47.354;8.528;2023-02-07T01:55:24;8.35;;;5.75;;
4577;SDS011;2301;47.354;8.528;2023-02-07T01:57:54;9.05;;;6.20;;
4577;SDS011;2301;47.354;8.528;2023-02-07T02:00:22;8.32;;;5.05;;
4577;SDS011;2301;47.354;8.528;2023-02-07T02:02:49;6.55;;;4.50;;
4577;SDS011;2301;47.354;8.528;2023-02-07T02:05:17;7.28;;;5.20;;
4577;SDS011;2301;47.354;8.528;2023-02-07T02:07:45;9.52;;;5.60;;
4577;SDS011;2301;47.354;8.528;2023-02-07T02:10:12;14.25;;;5.55;;
4577;SDS011;2301;47.354;8.528;2023-02-07T02:12:50;8.02;;;5.50;;
4577;SDS011;2301;47.354;8.528;2023-02-07T02:15:29;10.80;;;6.00;;
4577;SDS011;2301;47.354;8.528;2023-02-07T02:18:16;12.23;;;5.18;;
4577;SDS011;2301;47.354;8.528;2023-02-07T02:27:08;8.73;;;5.60;;
4577;SDS011;2301;47.354;8.528;2023-02-07T02:29:45;7.78;;;6.05;;
4577;SDS011;2301;47.354;8.528;2023-02-07T02:35:29;8.75;;;5.45;;
4577;SDS011;2301;47.354;8.528;2023-02-07T02:38:02;9.30;;;6.25;;
4577;SDS011;2301;47.354;8.528;2023-02-07T02:40:39;8.65;;;5.65;;
4577;SDS011;2301;47.354;8.528;2023-02-07T02:43:17;11.75;;;6.18;;
4577;SDS011;2301;47.354;8.528;2023-02-07T02:45:52;8.48;;;5.55;;
4577;SDS011;2301;47.354;8.528;2023-02-07T02:48:23;9.73;;;6.53;;
4577;SDS011;2301;47.354;8.528;2023-02-07T02:50:51;7.35;;;6.00;;
4577;SDS011;2301;47.354;8.528;2023-02-07T02:53:20;10.60;;;6.55;;
4577;SDS011;2301;47.354;8.528;2023-02-07T02:55:58;10.45;;;7.35;;
4577;SDS011;2301;47.354;8.528;2023-02-07T02:58:37;7.68;;;5.78;;
4577;SDS011;2301;47.354;8.528;2023-02-07T03:01:17;7.93;;;6.03;;
4577;SDS011;2301;47.354;8.528;2023-02-07T03:07:01;8.43;;;6.47;;
4577;SDS011;2301;47.354;8.528;2023-02-07T03:09:40;9.65;;;7.07;;
4577;SDS011;2301;47.354;8.528;2023-02-07T03:12:15;9.90;;;6.70;;
4577;SDS011;2301;47.354;8.528;2023-02-07T03:14:50;8.75;;;7.10;;
4577;SDS011;2301;47.354;8.528;2023-02-07T03:17:24;10.98;;;7.05;;
4577;SDS011;2301;47.354;8.528;2023-02-07T03:19:54;14.18;;;6.75;;
4577;SDS011;2301;47.354;8.528;2023-02-07T03:22:27;10.02;;;6.97;;
4577;SDS011;2301;47.354;8.528;2023-02-07T03:24:56;10.45;;;7.95;;
4577;SDS011;2301;47.354;8.528;2023-02-07T03:27:26;8.82;;;6.63;;
4577;SDS011;2301;47.354;8.528;2023-02-07T03:29:56;10.40;;;7.38;;
4577;SDS011;2301;47.354;8.528;2023-02-07T03:32:26;8.35;;;6.72;;
4577;SDS011;2301;47.354;8.528;2023-02-07T03:34:56;9.45;;;6.20;;
4577;SDS011;2301;47.354;8.528;2023-02-07T03:37:28;9.10;;;6.68;;
4577;SDS011;2301;47.354;8.528;2023-02-07T03:39:59;10.10;;;7.38;;
4577;SDS011;2301;47.354;8.528;2023-02-07T03:42:27;12.18;;;7.30;;
4577;SDS011;2301;47.354;8.528;2023-02-07T03:44:58;10.50;;;6.95;;
4577;SDS011;2301;47.354;8.528;2023-02-07T03:47:27;12.00;;;6.85;;
4577;SDS011;2301;47.354;8.528;2023-02-07T03:49:54;11.10;;;6.90;;
4577;SDS011;2301;47.354;8.528;2023-02-07T03:52:21;9.70;;;7.65;;
4577;SDS011;2301;47.354;8.528;2023-02-07T03:54:50;10.30;;;6.80;;
4577;SDS011;2301;47.354;8.528;2023-02-07T03:57:17;12.05;;;7.00;;
4577;SDS011;2301;47.354;8.528;2023-02-07T03:59:44;15.20;;;7.78;;
4577;SDS011;2301;47.354;8.528;2023-02-07T04:02:11;9.77;;;7.90;;
4577;SDS011;2301;47.354;8.528;2023-02-07T04:04:38;12.98;;;8.32;;
4577;SDS011;2301;47.354;8.528;2023-02-07T04:07:05;11.63;;;7.35;;
4577;SDS011;2301;47.354;8.528;2023-02-07T04:09:33;12.05;;;8.35;;
4577;SDS011;2301;47.354;8.528;2023-02-07T04:12:01;12.68;;;7.40;;
4577;SDS011;2301;47.354;8.528;2023-02-07T04:14:29;12.52;;;8.32;;
4577;SDS011;2301;47.354;8.528;2023-02-07T04:16:57;10.10;;;7.43;;
4577;SDS011;2301;47.354;8.528;2023-02-07T04:19:24;12.23;;;7.80;;
4577;SDS011;2301;47.354;8.528;2023-02-07T04:21:51;10.90;;;7.30;;
4577;SDS011;2301;47.354;8.528;2023-02-07T04:24:18;10.88;;;7.90;;
4577;SDS011;2301;47.354;8.528;2023-02-07T04:26:45;12.98;;;8.30;;
4577;SDS011;2301;47.354;8.528;2023-02-07T04:29:13;9.15;;;6.78;;
4577;SDS011;2301;47.354;8.528;2023-02-07T04:31:40;9.25;;;6.90;;
4577;SDS011;2301;47.354;8.528;2023-02-07T04:34:07;8.32;;;6.65;;
4577;SDS011;2301;47.354;8.528;2023-02-07T04:36:40;10.15;;;6.85;;
4577;SDS011;2301;47.354;8.528;2023-02-07T04:39:07;10.48;;;7.43;;
4577;SDS011;2301;47.354;8.528;2023-02-07T04:41:34;9.82;;;7.35;;
4577;SDS011;2301;47.354;8.528;2023-02-07T04:44:01;11.57;;;7.32;;
4577;SDS011;2301;47.354;8.528;2023-02-07T04:46:29;7.55;;;6.68;;
4577;SDS011;2301;47.354;8.528;2023-02-07T04:48:56;9.25;;;6.97;;
4577;SDS011;2301;47.354;8.528;2023-02-07T04:51:23;22.50;;;7.03;;
4577;SDS011;2301;47.354;8.528;2023-02-07T04:53:50;11.38;;;7.50;;
4577;SDS011;2301;47.354;8.528;2023-02-07T04:56:20;11.02;;;7.70;;
4577;SDS011;2301;47.354;8.528;2023-02-07T04:58:47;9.05;;;6.63;;
4577;SDS011;2301;47.354;8.528;2023-02-07T05:01:14;26.55;;;7.68;;
4577;SDS011;2301;47.354;8.528;2023-02-07T05:03:43;14.88;;;7.30;;
4577;SDS011;2301;47.354;8.528;2023-02-07T05:06:10;9.98;;;7.38;;
4577;SDS011;2301;47.354;8.528;2023-02-07T05:08:37;8.88;;;6.13;;
4577;SDS011;2301;47.354;8.528;2023-02-07T05:11:04;17.02;;;11.10;;
4577;SDS011;2301;47.354;8.528;2023-02-07T05:13:32;14.00;;;10.40;;
4577;SDS011;2301;47.354;8.528;2023-02-07T05:16:00;17.27;;;12.15;;
4577;SDS011;2301;47.354;8.528;2023-02-07T05:18:28;15.82;;;11.07;;
4577;SDS011;2301;47.354;8.528;2023-02-07T05:20:57;15.82;;;10.80;;
4577;SDS011;2301;47.354;8.528;2023-02-07T05:23:25;17.35;;;11.70;;
4577;SDS011;2301;47.354;8.528;2023-02-07T05:25:52;18.67;;;11.35;;
4577;SDS011;2301;47.354;8.528;2023-02-07T05:28:19;17.52;;;12.30;;
4577;SDS011;2301;47.354;8.528;2023-02-07T05:30:46;21.80;;;12.60;;
4577;SDS011;2301;47.354;8.528;2023-02-07T05:33:15;15.45;;;11.25;;
4577;SDS011;2301;47.354;8.528;2023-02-07T05:35:43;17.63;;;11.50;;
4577;SDS011;2301;47.354;8.528;2023-02-07T05:38:14;17.80;;;12.73;;
4577;SDS011;2301;47.354;8.528;2023-02-07T05:40:42;18.77;;;12.70;;
4577;SDS011;2301;47.354;8.528;2023-02-07T05:43:11;21.27;;;13.30;;
4577;SDS011;2301;47.354;8.528;2023-02-07T05:45:38;16.88;;;11.45;;
4577;SDS011;2301;47.354;8.528;2023-02-07T05:48:05;18.17;;;11.90;;
4577;SDS011;2301;47.354;8.528;2023-02-07T05:50:32;17.33;;;11.77;;
4577;SDS011;2301;47.354;8.528;2023-02-07T05:53:00;18.48;;;11.48;;
4577;SDS011;2301;47.354;8.528;2023-02-07T05:55:29;16.67;;;10.93;;
4577;SDS011;2301;47.354;8.528;2023-02-07T05:57:56;19.88;;;13.18;;
4577;SDS011;2301;47.354;8.528;2023-02-07T06:00:24;19.33;;;12.95;;
4577;SDS011;2301;47.354;8.528;2023-02-07T06:02:51;18.58;;;12.45;;
4577;SDS011;2301;47.354;8.528;2023-02-07T06:05:18;20.55;;;12.38;;
4577;SDS011;2301;47.354;8.528;2023-02-07T06:07:47;22.90;;;13.10;;
4577;SDS011;2301;47.354;8.528;2023-02-07T06:10:15;21.95;;;13.23;;
4577;SDS011;2301;47.354;8.528;2023-02-07T06:12:44;18.67;;;12.23;;
4577;SDS011;2301;47.354;8.528;2023-02-07T06:15:11;20.25;;;13.60;;
4577;SDS011;2301;47.354;8.528;2023-02-07T06:17:39;27.08;;;13.38;;
4577;SDS011;2301;47.354;8.528;2023-02-07T06:20:06;19.70;;;11.43;;
4577;SDS011;2301;47.354;8.528;2023-02-07T06:22:34;19.50;;;12.98;;
4577;SDS011;2301;47.354;8.528;2023-02-07T06:25:01;18.83;;;12.70;;
4577;SDS011;2301;47.354;8.528;2023-02-07T06:27:29;22.02;;;13.30;;
4577;SDS011;2301;47.354;8.528;2023-02-07T06:29:57;18.80;;;12.88;;
4577;SDS011;2301;47.354;8.528;2023-02-07T06:32:24;20.10;;;12.95;;
4577;SDS011;2301;47.354;8.528;2023-02-07T06:34:52;22.92;;;13.48;;
4577;SDS011;2301;47.354;8.528;2023-02-07T06:37:19;21.25;;;14.32;;
4577;SDS011;2301;47.354;8.528;2023-02-07T06:39:46;24.90;;;13.10;;
4577;SDS011;2301;47.354;8.528;2023-02-07T06:42:13;31.73;;;14.43;;
4577;SDS011;2301;47.354;8.528;2023-02-07T06:44:41;22.13;;;12.93;;
4577;SDS011;2301;47.354;8.528;2023-02-07T06:47:09;20.05;;;12.77;;
4577;SDS011;2301;47.354;8.528;2023-02-07T06:49:36;23.33;;;14.45;;
4577;SDS011;2301;47.354;8.528;2023-02-07T06:52:03;18.60;;;13.40;;
4577;SDS011;2301;47.354;8.528;2023-02-07T06:54:30;23.08;;;12.93;;
4577;SDS011;2301;47.354;8.528;2023-02-07T06:56:57;20.58;;;13.57;;
4577;SDS011;2301;47.354;8.528;2023-02-07T06:59:24;25.95;;;13.57;;
4577;SDS011;2301;47.354;8.528;2023-02-07T07:01:52;22.05;;;14.00;;
4577;SDS011;2301;47.354;8.528;2023-02-07T07:04:20;20.35;;;13.23;;
4577;SDS011;2301;47.354;8.528;2023-02-07T07:06:47;23.80;;;13.05;;
4577;SDS011;2301;47.354;8.528;2023-02-07T07:09:14;21.17;;;14.18;;
4577;SDS011;2301;47.354;8.528;2023-02-07T07:11:41;25.75;;;14.57;;
4577;SDS011;2301;47.354;8.528;2023-02-07T07:14:08;27.35;;;14.52;;
4577;SDS011;2301;47.354;8.528;2023-02-07T07:16:35;22.27;;;14.48;;
4577;SDS011;2301;47.354;8.528;2023-02-07T07:19:03;18.10;;;12.75;;
4577;SDS011;2301;47.354;8.528;2023-02-07T07:21:31;23.17;;;14.23;;
4577;SDS011;2301;47.354;8.528;2023-02-07T07:23:58;22.73;;;14.07;;
4577;SDS011;2301;47.354;8.528;2023-02-07T07:26:25;23.25;;;14.60;;
4577;SDS011;2301;47.354;8.528;2023-02-07T07:28:52;26.05;;;14.43;;
4577;SDS011;2301;47.354;8.528;2023-02-07T07:31:22;25.00;;;14.10;;
4577;SDS011;2301;47.354;8.528;2023-02-07T07:33:49;26.70;;;15.18;;
4577;SDS011;2301;47.354;8.528;2023-02-07T07:36:16;23.23;;;13.90;;
4577;SDS011;2301;47.354;8.528;2023-02-07T07:38:44;26.50;;;16.77;;
4577;SDS011;2301;47.354;8.528;2023-02-07T07:41:11;19.83;;;12.65;;
4577;SDS011;2301;47.354;8.528;2023-02-07T07:43:38;20.83;;;14.07;;
4577;SDS011;2301;47.354;8.528;2023-02-07T07:46:05;23.55;;;14.95;;
4577;SDS011;2301;47.354;8.528;2023-02-07T07:48:32;18.30;;;13.05;;
4577;SDS011;2301;47.354;8.528;2023-02-07T07:50:59;22.52;;;14.43;;
4577;SDS011;2301;47.354;8.528;2023-02-07T07:53:26;24.05;;;13.70;;
4577;SDS011;2301;47.354;8.528;2023-02-07T07:55:55;21.80;;;12.95;;
4577;SDS011;2301;47.354;8.528;2023-02-07T07:58:23;23.55;;;13.60;;
4577;SDS011;2301;47.354;8.528;2023-02-07T08:00:51;20.17;;;13.50;;
4577;SDS011;2301;47.354;8.528;2023-02-07T08:03:19;30.10;;;14.65;;
4577;SDS011;2301;47.354;8.528;2023-02-07T08:05:46;23.17;;;14.85;;
4577;SDS011;2301;47.354;8.528;2023-02-07T08:08:14;25.05;;;15.65;;
4577;SDS011;2301;47.354;8.528;2023-02-07T08:10:42;23.75;;;15.15;;
4577;SDS011;2301;47.354;8.528;2023-02-07T08:13:11;22.30;;;15.38;;
4577;SDS011;2301;47.354;8.528;2023-02-07T08:15:40;23.95;;;15.20;;
4577;SDS011;2301;47.354;8.528;2023-02-07T08:18:08;25.35;;;14.02;;
4577;SDS011;2301;47.354;8.528;2023-02-07T08:20:35;20.58;;;14.57;;
4577;SDS011;2301;47.354;8.528;2023-02-07T08:23:02;27.08;;;16.33;;
4577;SDS011;2301;47.354;8.528;2023-02-07T08:25:29;21.05;;;14.02;;
4577;SDS011;2301;47.354;8.528;2023-02-07T08:27:56;23.55;;;15.40;;
4577;SDS011;2301;47.354;8.528;2023-02-07T08:30:24;19.35;;;13.88;;
4577;SDS011;2301;47.354;8.528;2023-02-07T08:32:51;21.30;;;14.30;;
4577;SDS011;2301;47.354;8.528;2023-02-07T08:35:19;21.38;;;14.07;;
4577;SDS011;2301;47.354;8.528;2023-02-07T08:37:46;20.65;;;13.82;;
4577;SDS011;2301;47.354;8.528;2023-02-07T08:40:15;22.48;;;14.35;;
4577;SDS011;2301;47.354;8.528;2023-02-07T08:42:42;27.00;;;14.32;;
4577;SDS011;2301;47.354;8.528;2023-02-07T08:45:10;21.85;;;13.40;;
4577;SDS011;2301;47.354;8.528;2023-02-07T08:47:38;21.85;;;13.70;;
4577;SDS011;2301;47.354;8.528;2023-02-07T08:50:06;21.98;;;14.10;;
4577;SDS011;2301;47.354;8.528;2023-02-07T08:52:34;19.60;;;13.77;;
4577;SDS011;2301;47.354;8.528;2023-02-07T08:55:01;18.90;;;13.80;;
4577;SDS011;2301;47.354;8.528;2023-02-07T08:57:28;20.92;;;14.15;;
4577;SDS011;2301;47.354;8.528;2023-02-07T08:59:55;23.65;;;14.40;;
4577;SDS011;2301;47.354;8.528;2023-02-07T09:02:23;19.77;;;13.43;;
4577;SDS011;2301;47.354;8.528;2023-02-07T09:04:52;23.20;;;14.48;;
4577;SDS011;2301;47.354;8.528;2023-02-07T09:07:19;19.98;;;14.10;;
4577;SDS011;2301;47.354;8.528;2023-02-07T09:09:46;22.83;;;13.23;;
4577;SDS011;2301;47.354;8.528;2023-02-07T09:12:13;17.80;;;13.45;;
4577;SDS011;2301;47.354;8.528;2023-02-07T09:14:40;19.42;;;14.30;;
4577;SDS011;2301;47.354;8.528;2023-02-07T09:17:07;20.25;;;15.00;;
4577;SDS011;2301;47.354;8.528;2023-02-07T09:19:35;19.08;;;13.70;;
4577;SDS011;2301;47.354;8.528;2023-02-07T09:22:04;20.73;;;14.68;;
4577;SDS011;2301;47.354;8.528;2023-02-07T09:24:31;21.00;;;13.98;;
4577;SDS011;2301;47.354;8.528;2023-02-07T09:26:58;22.70;;;14.70;;
4577;SDS011;2301;47.354;8.528;2023-02-07T09:29:26;20.50;;;13.60;;
4577;SDS011;2301;47.354;8.528;2023-02-07T09:31:53;20.60;;;14.55;;
4577;SDS011;2301;47.354;8.528;2023-02-07T09:34:20;18.27;;;12.93;;
4577;SDS011;2301;47.354;8.528;2023-02-07T09:36:47;19.25;;;13.75;;
4577;SDS011;2301;47.354;8.528;2023-02-07T09:39:16;24.40;;;12.63;;
4577;SDS011;2301;47.354;8.528;2023-02-07T09:41:46;25.38;;;14.43;;
4577;SDS011;2301;47.354;8.528;2023-02-07T09:44:20;22.10;;;14.32;;
4577;SDS011;2301;47.354;8.528;2023-02-07T09:46:56;20.25;;;13.10;;
4577;SDS011;2301;47.354;8.528;2023-02-07T09:49:29;19.88;;;14.00;;
4577;SDS011;2301;47.354;8.528;2023-02-07T09:52:01;20.08;;;14.80;;
4577;SDS011;2301;47.354;8.528;2023-02-07T09:54:34;19.77;;;14.15;;
4577;SDS011;2301;47.354;8.528;2023-02-07T09:57:05;20.77;;;14.18;;
4577;SDS011;2301;47.354;8.528;2023-02-07T09:59:39;19.85;;;14.43;;
4577;SDS011;2301;47.354;8.528;2023-02-07T10:02:14;16.67;;;12.55;;
4577;SDS011;2301;47.354;8.528;2023-02-07T10:04:47;24.52;;;14.40;;
4577;SDS011;2301;47.354;8.528;2023-02-07T10:07:17;20.63;;;13.60;;
4577;SDS011;2301;47.354;8.528;2023-02-07T10:09:45;25.13;;;14.73;;
4577;SDS011;2301;47.354;8.528;2023-02-07T10:12:19;22.27;;;14.10;;
4577;SDS011;2301;47.354;8.528;2023-02-07T10:15:04;21.70;;;14.10;;
4577;SDS011;2301;47.354;8.528;2023-02-07T10:17:48;22.10;;;15.30;;
4577;SDS011;2301;47.354;8.528;2023-02-07T10:20:29;20.35;;;13.40;;
4577;SDS011;2301;47.354;8.528;2023-02-07T10:23:18;26.25;;;13.88;;
4577;SDS011;2301;47.354;8.528;2023-02-07T10:25:58;17.95;;;12.40;;
4577;SDS011;2301;47.354;8.528;2023-02-07T10:28:43;21.30;;;13.55;;
4577;SDS011;2301;47.354;8.528;2023-02-07T10:31:39;16.35;;;12.98;;
4577;SDS011;2301;47.354;8.528;2023-02-07T10:34:12;20.45;;;13.88;;
4577;SDS011;2301;47.354;8.528;2023-02-07T10:36:42;23.88;;;14.98;;
4577;SDS011;2301;47.354;8.528;2023-02-07T10:39:13;19.73;;;14.07;;
4577;SDS011;2301;47.354;8.528;2023-02-07T10:41:45;22.52;;;13.40;;
4577;SDS011;2301;47.354;8.528;2023-02-07T10:44:13;20.50;;;14.50;;
4577;SDS011;2301;47.354;8.528;2023-02-07T10:46:43;18.98;;;13.73;;
4577;SDS011;2301;47.354;8.528;2023-02-07T10:49:15;24.05;;;15.02;;
4577;SDS011;2301;47.354;8.528;2023-02-07T10:51:45;21.58;;;15.35;;
4577;SDS011;2301;47.354;8.528;2023-02-07T10:54:15;19.83;;;14.05;;
4577;SDS011;2301;47.354;8.528;2023-02-07T10:56:46;21.83;;;15.75;;
4577;SDS011;2301;47.354;8.528;2023-02-07T10:59:31;19.90;;;14.63;;
4577;SDS011;2301;47.354;8.528;2023-02-07T11:02:03;22.95;;;14.40;;
4577;SDS011;2301;47.354;8.528;2023-02-07T11:04:49;19.65;;;15.27;;
4577;SDS011;2301;47.354;8.528;2023-02-07T11:07:16;18.80;;;14.80;;
4577;SDS011;2301;47.354;8.528;2023-02-07T11:09:44;19.05;;;14.18;;
4577;SDS011;2301;47.354;8.528;2023-02-07T11:12:18;21.33;;;14.45;;
4577;SDS011;2301;47.354;8.528;2023-02-07T11:14:58;20.02;;;13.90;;
4577;SDS011;2301;47.354;8.528;2023-02-07T11:17:26;21.70;;;14.85;;
4577;SDS011;2301;47.354;8.528;2023-02-07T11:19:54;21.50;;;14.45;;
4577;SDS011;2301;47.354;8.528;2023-02-07T11:22:22;18.17;;;14.52;;
4577;SDS011;2301;47.354;8.528;2023-02-07T11:24:51;22.35;;;13.40;;
4577;SDS011;2301;47.354;8.528;2023-02-07T11:27:25;20.88;;;14.13;;
4577;SDS011;2301;47.354;8.528;2023-02-07T11:29:54;17.00;;;12.90;;
4577;SDS011;2301;47.354;8.528;2023-02-07T11:32:24;20.10;;;13.77;;
4577;SDS011;2301;47.354;8.528;2023-02-07T11:34:53;18.48;;;13.23;;
4577;SDS011;2301;47.354;8.528;2023-02-07T11:37:23;18.15;;;13.38;;
4577;SDS011;2301;47.354;8.528;2023-02-07T11:39:55;16.42;;;12.60;;
4577;SDS011;2301;47.354;8.528;2023-02-07T11:42:41;22.65;;;13.30;;
4577;SDS011;2301;47.354;8.528;2023-02-07T11:45:12;18.00;;;12.95;;
4577;SDS011;2301;47.354;8.528;2023-02-07T11:47:40;18.30;;;13.02;;
4577;SDS011;2301;47.354;8.528;2023-02-07T11:50:11;17.63;;;13.35;;
4577;SDS011;2301;47.354;8.528;2023-02-07T11:52:48;14.88;;;11.35;;
4577;SDS011;2301;47.354;8.528;2023-02-07T11:55:19;17.33;;;13.10;;
4577;SDS011;2301;47.354;8.528;2023-02-07T11:57:50;18.20;;;13.77;;
4577;SDS011;2301;47.354;8.528;2023-02-07T12:00:22;14.45;;;11.35;;
4577;SDS011;2301;47.354;8.528;2023-02-07T12:02:58;16.98;;;13.07;;
4577;SDS011;2301;47.354;8.528;2023-02-07T12:05:28;20.10;;;13.00;;
4577;SDS011;2301;47.354;8.528;2023-02-07T12:07:59;20.00;;;12.00;;
4577;SDS011;2301;47.354;8.528;2023-02-07T12:10:31;17.15;;;13.07;;
4577;SDS011;2301;47.354;8.528;2023-02-07T12:13:03;19.10;;;12.13;;
4577;SDS011;2301;47.354;8.528;2023-02-07T12:15:36;15.75;;;12.48;;
4577;SDS011;2301;47.354;8.528;2023-02-07T12:18:06;16.58;;;12.70;;
4577;SDS011;2301;47.354;8.528;2023-02-07T12:20:41;19.33;;;13.40;;
4577;SDS011;2301;47.354;8.528;2023-02-07T12:23:17;16.80;;;12.07;;
4577;SDS011;2301;47.354;8.528;2023-02-07T12:25:51;16.45;;;12.93;;
4577;SDS011;2301;47.354;8.528;2023-02-07T12:28:23;21.40;;;13.98;;
4577;SDS011;2301;47.354;8.528;2023-02-07T12:30:56;18.77;;;12.23;;
4577;SDS011;2301;47.354;8.528;2023-02-07T12:33:28;13.02;;;10.93;;
4577;SDS011;2301;47.354;8.528;2023-02-07T12:36:02;16.30;;;12.25;;
4577;SDS011;2301;47.354;8.528;2023-02-07T12:38:36;15.43;;;11.75;;
4577;SDS011;2301;47.354;8.528;2023-02-07T12:41:07;17.35;;;12.60;;
4577;SDS011;2301;47.354;8.528;2023-02-07T12:43:42;20.00;;;13.20;;
4577;SDS011;2301;47.354;8.528;2023-02-07T12:46:22;14.90;;;11.45;;
4577;SDS011;2301;47.354;8.528;2023-02-07T12:49:04;19.30;;;11.85;;
4577;SDS011;2301;47.354;8.528;2023-02-07T12:51:45;16.33;;;12.18;;
4577;SDS011;2301;47.354;8.528;2023-02-07T12:54:23;15.70;;;12.00;;
4577;SDS011;2301;47.354;8.528;2023-02-07T12:57:02;18.20;;;12.25;;
4577;SDS011;2301;47.354;8.528;2023-02-07T12:59:38;16.23;;;11.98;;
4577;SDS011;2301;47.354;8.528;2023-02-07T13:02:22;19.25;;;13.80;;
4577;SDS011;2301;47.354;8.528;2023-02-07T13:05:04;16.33;;;11.95;;
4577;SDS011;2301;47.354;8.528;2023-02-07T13:07:55;16.02;;;11.80;;
4577;SDS011;2301;47.354;8.528;2023-02-07T13:10:27;15.35;;;12.00;;
4577;SDS011;2301;47.354;8.528;2023-02-07T13:13:04;14.45;;;11.95;;
4577;SDS011;2301;47.354;8.528;2023-02-07T13:15:40;17.98;;;13.63;;
4577;SDS011;2301;47.354;8.528;2023-02-07T13:18:14;17.33;;;13.10;;
4577;SDS011;2301;47.354;8.528;2023-02-07T13:20:48;19.73;;;13.52;;
4577;SDS011;2301;47.354;8.528;2023-02-07T13:23:23;18.30;;;14.32;;
4577;SDS011;2301;47.354;8.528;2023-02-07T13:25:53;16.10;;;12.75;;
4577;SDS011;2301;47.354;8.528;2023-02-07T13:28:25;20.73;;;12.52;;
4577;SDS011;2301;47.354;8.528;2023-02-07T13:30:58;19.67;;;12.73;;
4577;SDS011;2301;47.354;8.528;2023-02-07T13:33:30;16.23;;;12.73;;
4577;SDS011;2301;47.354;8.528;2023-02-07T13:36:01;16.48;;;13.13;;
4577;SDS011;2301;47.354;8.528;2023-02-07T13:38:39;17.67;;;13.18;;
4577;SDS011;2301;47.354;8.528;2023-02-07T13:41:30;16.23;;;13.43;;
4577;SDS011;2301;47.354;8.528;2023-02-07T13:44:04;17.05;;;13.20;;
4577;SDS011;2301;47.354;8.528;2023-02-07T13:46:47;17.98;;;13.30;;
4577;SDS011;2301;47.354;8.528;2023-02-07T13:49:33;20.40;;;12.13;;
4577;SDS011;2301;47.354;8.528;2023-02-07T13:52:08;20.25;;;14.00;;
4577;SDS011;2301;47.354;8.528;2023-02-07T13:54:39;20.45;;;14.30;;
4577;SDS011;2301;47.354;8.528;2023-02-07T13:57:20;27.52;;;14.15;;
4577;SDS011;2301;47.354;8.528;2023-02-07T14:00:21;18.60;;;13.30;;
4577;SDS011;2301;47.354;8.528;2023-02-07T14:02:52;16.75;;;12.93;;
4577;SDS011;2301;47.354;8.528;2023-02-07T14:05:22;17.75;;;13.05;;
4577;SDS011;2301;47.354;8.528;2023-02-07T14:07:56;18.15;;;14.15;;
4577;SDS011;2301;47.354;8.528;2023-02-07T14:10:33;16.63;;;12.52;;
4577;SDS011;2301;47.354;8.528;2023-02-07T14:13:22;16.02;;;12.60;;
4577;SDS011;2301;47.354;8.528;2023-02-07T14:15:58;18.50;;;12.27;;
4577;SDS011;2301;47.354;8.528;2023-02-07T14:18:45;17.98;;;13.20;;
4577;SDS011;2301;47.354;8.528;2023-02-07T14:21:23;19.15;;;13.90;;
4577;SDS011;2301;47.354;8.528;2023-02-07T14:24:01;17.55;;;13.45;;
4577;SDS011;2301;47.354;8.528;2023-02-07T14:26:55;18.52;;;13.05;;
4577;SDS011;2301;47.354;8.528;2023-02-07T14:29:39;20.23;;;13.57;;
4577;SDS011;2301;47.354;8.528;2023-02-07T14:32:27;17.65;;;13.75;;
4577;SDS011;2301;47.354;8.528;2023-02-07T14:35:00;19.08;;;13.43;;
4577;SDS011;2301;47.354;8.528;2023-02-07T14:37:41;16.88;;;12.98;;
4577;SDS011;2301;47.354;8.528;2023-02-07T14:40:17;27.38;;;13.40;;
4577;SDS011;2301;47.354;8.528;2023-02-07T14:42:52;15.85;;;12.05;;
4577;SDS011;2301;47.354;8.528;2023-02-07T14:45:21;19.55;;;13.73;;
4577;SDS011;2301;47.354;8.528;2023-02-07T14:47:49;18.73;;;13.32;;
4577;SDS011;2301;47.354;8.528;2023-02-07T14:50:19;18.65;;;13.70;;
4577;SDS011;2301;47.354;8.528;2023-02-07T14:52:52;19.17;;;13.80;;
4577;SDS011;2301;47.354;8.528;2023-02-07T14:55:23;18.83;;;12.50;;
4577;SDS011;2301;47.354;8.528;2023-02-07T14:57:56;25.52;;;14.43;;
4577;SDS011;2301;47.354;8.528;2023-02-07T15:00:27;17.52;;;13.52;;
4577;SDS011;2301;47.354;8.528;2023-02-07T15:02:58;16.38;;;12.90;;
4577;SDS011;2301;47.354;8.528;2023-02-07T15:05:32;18.67;;;14.05;;
4577;SDS011;2301;47.354;8.528;2023-02-07T15:08:05;17.63;;;13.18;;
4577;SDS011;2301;47.354;8.528;2023-02-07T15:10:35;19.95;;;13.93;;
4577;SDS011;2301;47.354;8.528;2023-02-07T15:13:12;18.40;;;13.73;;
4577;SDS011;2301;47.354;8.528;2023-02-07T15:15:46;18.38;;;13.55;;
4577;SDS011;2301;47.354;8.528;2023-02-07T15:18:18;16.40;;;13.13;;
4577;SDS011;2301;47.354;8.528;2023-02-07T15:20:49;19.00;;;14.20;;
4577;SDS011;2301;47.354;8.528;2023-02-07T15:23:17;19.25;;;14.30;;
4577;SDS011;2301;47.354;8.528;2023-02-07T15:25:45;21.80;;;14.55;;
4577;SDS011;2301;47.354;8.528;2023-02-07T15:28:17;21.00;;;13.75;;
4577;SDS011;2301;47.354;8.528;2023-02-07T15:30:57;25.42;;;14.93;;